createdAt,value
2023-04-15T00:00:43.136Z,6.819153
2023-04-15T00:01:50.856Z,6.819153
2023-04-15T00:03:00.662Z,6.809082
2023-04-15T00:04:10.234Z,6.768799
2023-04-15T00:05:18.888Z,6.698303
2023-04-15T00:06:28.571Z,6.688232
2023-04-15T00:07:37.254Z,6.65802
2023-04-15T00:08:45.939Z,6.627808
2023-04-15T00:09:55.648Z,6.627808
2023-04-15T00:11:05.348Z,6.65802
2023-04-15T00:12:15.061Z,6.77887
2023-04-15T00:13:24.746Z,6.78894
2023-04-15T00:14:32.616Z,6.748657
2023-04-15T00:15:41.324Z,6.748657
2023-04-15T00:16:50.101Z,6.77887
2023-04-15T00:17:58.737Z,6.718445
2023-04-15T00:19:08.496Z,6.718445
2023-04-15T00:20:18.227Z,6.698303
2023-04-15T00:21:26.954Z,6.718445
2023-04-15T00:22:36.680Z,6.698303
2023-04-15T00:23:44.378Z,6.77887
2023-04-15T00:24:54.099Z,6.688232
2023-04-15T00:26:03.824Z,6.718445
2023-04-15T00:27:13.548Z,6.718445
2023-04-15T00:28:22.261Z,6.77887
2023-04-15T00:29:30.985Z,6.768799
2023-04-15T00:30:39.779Z,6.738586
2023-04-15T00:31:49.426Z,6.77887
2023-04-15T00:32:57.169Z,6.78894
2023-04-15T00:34:06.939Z,6.809082
2023-04-15T00:35:15.617Z,6.839294
2023-04-15T00:36:23.320Z,6.77887
2023-04-15T00:37:33.010Z,6.768799
2023-04-15T00:38:40.689Z,6.768799
2023-04-15T00:39:49.405Z,6.819153
2023-04-15T00:40:59.106Z,6.809082
2023-04-15T00:42:06.793Z,6.78894
2023-04-15T00:43:16.561Z,6.819153
2023-04-15T00:44:25.240Z,6.77887
2023-04-15T00:45:32.984Z,6.78894
2023-04-15T00:46:42.631Z,6.819153
2023-04-15T00:47:52.340Z,6.819153
2023-04-15T00:49:01.046Z,6.819153
2023-04-15T00:50:10.708Z,6.809082
2023-04-15T00:51:18.440Z,6.869507
2023-04-15T00:52:28.133Z,6.919861
2023-04-15T00:53:36.845Z,6.879578
2023-04-15T00:54:45.595Z,6.889648
2023-04-15T00:55:55.315Z,6.869507
2023-04-15T00:57:03.031Z,6.839294
2023-04-15T00:58:12.730Z,6.919861
2023-04-15T00:59:21.443Z,6.869507
2023-04-15T01:00:30.179Z,6.889648
2023-04-15T01:01:39.902Z,6.879578
2023-04-15T01:02:48.743Z,6.879578
2023-04-15T01:03:56.457Z,6.889648
2023-04-15T01:05:06.057Z,6.950073
2023-04-15T01:06:13.771Z,6.929932
2023-04-15T01:07:21.532Z,6.960144
2023-04-15T01:08:31.233Z,6.929932
2023-04-15T01:09:39.948Z,6.929932
2023-04-15T01:10:48.720Z,6.889648
2023-04-15T01:11:58.455Z,6.849365
2023-04-15T01:13:06.156Z,6.869507
2023-04-15T01:14:14.817Z,6.889648
2023-04-15T01:15:24.538Z,6.929932
2023-04-15T01:16:32.259Z,6.879578
2023-04-15T01:17:41.981Z,6.919861
2023-04-15T01:18:51.603Z,6.879578
2023-04-15T01:20:00.335Z,6.950073
2023-04-15T01:21:10.069Z,6.950073
2023-04-15T01:22:17.759Z,6.960144
2023-04-15T01:23:27.501Z,6.970215
2023-04-15T01:24:37.235Z,7.000427
2023-04-15T01:25:45.954Z,6.950073
2023-04-15T01:26:55.632Z,6.919861
2023-04-15T01:28:04.390Z,6.889648
2023-04-15T01:29:13.076Z,6.879578
2023-04-15T01:30:22.804Z,6.889648
2023-04-15T01:31:30.563Z,6.960144
2023-04-15T01:32:39.252Z,6.919861
2023-04-15T01:33:48.910Z,6.950073
2023-04-15T01:34:57.638Z,6.970215
2023-04-15T01:36:07.350Z,6.960144
2023-04-15T01:37:16.149Z,6.950073
2023-04-15T01:38:23.917Z,6.889648
2023-04-15T01:39:33.722Z,6.919861
2023-04-15T01:40:43.444Z,6.839294
2023-04-15T01:41:52.166Z,6.889648
2023-04-15T01:43:01.883Z,6.919861
2023-04-15T01:44:10.579Z,6.879578
2023-04-15T01:45:20.322Z,6.879578
2023-04-15T01:46:29.086Z,6.849365
2023-04-15T01:47:37.768Z,6.919861
2023-04-15T01:48:47.539Z,6.919861
2023-04-15T01:49:55.230Z,6.950073
2023-04-15T01:51:03.978Z,6.919861
2023-04-15T01:52:13.669Z,6.929932
2023-04-15T01:53:21.356Z,6.889648
2023-04-15T01:54:31.146Z,6.960144
2023-04-15T01:55:39.916Z,6.960144
2023-04-15T01:56:47.590Z,6.990356
2023-04-15T01:57:57.286Z,6.950073
2023-04-15T01:59:05.028Z,7.03064
2023-04-15T02:00:13.695Z,7.050781
2023-04-15T02:01:23.464Z,7.000427
2023-04-15T02:02:32.303Z,6.990356
2023-04-15T02:03:41.944Z,7.000427
2023-04-15T02:04:50.637Z,6.950073
2023-04-15T02:05:58.329Z,6.950073
2023-04-15T02:07:08.027Z,6.950073
2023-04-15T02:08:16.713Z,6.929932
2023-04-15T02:09:25.403Z,6.929932
2023-04-15T02:10:35.153Z,6.919861
2023-04-15T02:11:42.880Z,6.919861
2023-04-15T02:12:52.570Z,6.919861
2023-04-15T02:14:01.213Z,6.970215
2023-04-15T02:15:09.874Z,6.990356
2023-04-15T02:16:19.656Z,6.950073
2023-04-15T02:17:27.284Z,6.960144
2023-04-15T02:18:35.973Z,6.950073
2023-04-15T02:19:45.655Z,6.960144
2023-04-15T02:20:53.375Z,6.919861
2023-04-15T02:22:03.031Z,6.889648
2023-04-15T02:23:11.728Z,6.919861
2023-04-15T02:24:19.437Z,6.919861
2023-04-15T02:25:29.115Z,6.970215
2023-04-15T02:26:36.825Z,6.950073
2023-04-15T02:27:46.565Z,6.879578
2023-04-15T02:28:56.260Z,6.889648
2023-04-15T02:30:04.921Z,6.869507
2023-04-15T02:31:14.662Z,6.839294
2023-04-15T02:32:23.392Z,6.879578
2023-04-15T02:33:31.102Z,6.919861
2023-04-15T02:34:39.797Z,6.849365
2023-04-15T02:35:47.470Z,6.879578
2023-04-15T02:36:57.268Z,6.889648
2023-04-15T02:38:06.952Z,6.929932
2023-04-15T02:39:15.660Z,6.919861
2023-04-15T02:40:25.372Z,6.849365
2023-04-15T02:41:34.118Z,6.839294
2023-04-15T02:42:42.825Z,6.849365
2023-04-15T02:43:52.535Z,6.839294
2023-04-15T02:45:01.175Z,6.889648
2023-04-15T02:46:09.909Z,6.929932
2023-04-15T02:47:19.598Z,6.889648
2023-04-15T02:48:27.294Z,6.879578
2023-04-15T02:49:36.984Z,6.879578
2023-04-15T02:50:45.653Z,6.950073
2023-04-15T02:51:55.377Z,6.950073
2023-04-15T02:53:05.071Z,6.950073
2023-04-15T02:54:12.756Z,6.950073
2023-04-15T02:55:21.409Z,7.000427
2023-04-15T02:56:31.160Z,6.990356
2023-04-15T02:57:38.871Z,7.050781
2023-04-15T02:58:48.569Z,7.000427
2023-04-15T02:59:57.298Z,6.990356
2023-04-15T03:01:05.123Z,7.020569
2023-04-15T03:02:14.766Z,6.990356
2023-04-15T03:03:23.498Z,6.950073
2023-04-15T03:04:33.146Z,6.990356
2023-04-15T03:05:42.922Z,6.990356
2023-04-15T03:06:51.609Z,6.950073
2023-04-15T03:08:00.297Z,7.000427
2023-04-15T03:09:09.983Z,6.970215
2023-04-15T03:10:18.684Z,6.929932
2023-04-15T03:11:27.403Z,6.960144
2023-04-15T03:12:37.105Z,7.020569
2023-04-15T03:13:44.769Z,7.020569
2023-04-15T03:14:54.450Z,7.03064
2023-04-15T03:16:04.266Z,7.060852
2023-04-15T03:17:11.876Z,7.050781
2023-04-15T03:18:21.567Z,7.060852
2023-04-15T03:19:30.277Z,7.111206
2023-04-15T03:20:39.034Z,7.111206
2023-04-15T03:21:48.708Z,7.131348
2023-04-15T03:22:57.405Z,7.020569
2023-04-15T03:24:07.096Z,7.03064
2023-04-15T03:25:16.785Z,7.020569
2023-04-15T03:26:24.512Z,7.03064
2023-04-15T03:27:34.205Z,7.050781
2023-04-15T03:28:42.877Z,7.020569
2023-04-15T03:29:51.569Z,7.060852
2023-04-15T03:31:00.323Z,7.070923
2023-04-15T03:32:09.065Z,7.131348
2023-04-15T03:33:18.710Z,7.151489
2023-04-15T03:34:26.477Z,7.232056
2023-04-15T03:35:35.192Z,7.201843
2023-04-15T03:36:43.917Z,7.201843
2023-04-15T03:37:52.630Z,7.151489
2023-04-15T03:39:01.545Z,7.171631
2023-04-15T03:40:11.128Z,7.151489
2023-04-15T03:41:18.856Z,7.141418
2023-04-15T03:42:28.573Z,7.201843
2023-04-15T03:43:37.254Z,7.181702
2023-04-15T03:44:45.969Z,7.171631
2023-04-15T03:45:55.678Z,7.141418
2023-04-15T03:47:05.437Z,7.151489
2023-04-15T03:48:18.006Z,7.111206
2023-04-15T03:49:24.852Z,7.151489
2023-04-15T03:50:33.545Z,7.151489
2023-04-15T03:51:43.271Z,7.171631
2023-04-15T03:52:52.989Z,7.141418
2023-04-15T03:54:00.671Z,7.151489
2023-04-15T03:55:10.375Z,7.131348
2023-04-15T03:56:18.070Z,7.131348
2023-04-15T03:57:26.828Z,7.070923
2023-04-15T03:58:36.506Z,7.020569
2023-04-15T03:59:46.201Z,7.101135
2023-04-15T04:00:55.886Z,7.131348
2023-04-15T04:02:04.614Z,7.111206
2023-04-15T04:03:13.397Z,7.111206
2023-04-15T04:04:23.021Z,7.131348
2023-04-15T04:05:32.675Z,7.050781
2023-04-15T04:06:41.398Z,7.101135
2023-04-15T04:07:51.080Z,7.101135
2023-04-15T04:08:59.914Z,7.111206
2023-04-15T04:10:09.439Z,7.050781
2023-04-15T04:11:18.180Z,7.060852
2023-04-15T04:12:26.902Z,7.141418
2023-04-15T04:13:36.557Z,7.141418
2023-04-15T04:14:44.297Z,7.141418
2023-04-15T04:15:52.990Z,7.111206
2023-04-15T04:17:02.688Z,7.131348
2023-04-15T04:18:10.397Z,7.111206
2023-04-15T04:19:20.058Z,7.101135
2023-04-15T04:20:28.790Z,7.131348
2023-04-15T04:21:37.465Z,7.131348
2023-04-15T04:22:47.147Z,7.201843
2023-04-15T04:23:54.839Z,7.111206
2023-04-15T04:25:03.550Z,7.141418
2023-04-15T04:26:13.247Z,7.131348
2023-04-15T04:27:20.992Z,7.141418
2023-04-15T04:28:30.682Z,7.171631
2023-04-15T04:29:39.410Z,7.151489
2023-04-15T04:30:47.149Z,7.111206
2023-04-15T04:31:56.870Z,7.141418
2023-04-15T04:33:04.587Z,7.131348
2023-04-15T04:34:14.263Z,7.131348
2023-04-15T04:35:23.951Z,7.111206
2023-04-15T04:36:33.669Z,7.141418
2023-04-15T04:37:43.383Z,7.151489
2023-04-15T04:38:52.085Z,7.111206
2023-04-15T04:40:00.840Z,7.141418
2023-04-15T04:41:10.533Z,7.171631
2023-04-15T04:42:18.257Z,7.151489
2023-04-15T04:43:26.992Z,7.131348
2023-04-15T04:44:36.702Z,7.131348
2023-04-15T04:45:45.504Z,7.171631
2023-04-15T04:46:55.353Z,7.171631
2023-04-15T04:48:04.053Z,7.141418
2023-04-15T04:49:12.740Z,7.181702
2023-04-15T04:50:22.413Z,7.131348
2023-04-15T04:51:31.132Z,7.131348
2023-04-15T04:52:40.854Z,7.141418
2023-04-15T04:53:50.549Z,7.181702
2023-04-15T04:54:59.223Z,7.111206
2023-04-15T04:56:08.956Z,7.141418
2023-04-15T04:57:18.741Z,7.171631
2023-04-15T04:58:26.418Z,7.201843
2023-04-15T04:59:36.138Z,7.201843
2023-04-15T05:00:43.811Z,7.201843
2023-04-15T05:01:52.550Z,7.151489
2023-04-15T05:03:02.413Z,7.141418
2023-04-15T05:04:11.064Z,7.070923
2023-04-15T05:05:19.682Z,7.101135
2023-04-15T05:06:29.372Z,7.131348
2023-04-15T05:07:37.090Z,7.211914
2023-04-15T05:08:46.800Z,7.201843
2023-04-15T05:09:56.539Z,7.201843
2023-04-15T05:11:05.269Z,7.232056
2023-04-15T05:12:15.037Z,7.242126
2023-04-15T05:13:23.706Z,7.201843
2023-04-15T05:14:31.375Z,7.181702
2023-04-15T05:15:41.121Z,7.201843
2023-04-15T05:16:48.775Z,7.29248
2023-04-15T05:17:57.515Z,7.28241
2023-04-15T05:19:07.202Z,7.252197
2023-04-15T05:20:16.910Z,7.232056
2023-04-15T05:21:26.556Z,7.181702
2023-04-15T05:22:35.257Z,7.181702
2023-04-15T05:23:44.920Z,7.151489
2023-04-15T05:24:54.657Z,7.111206
2023-04-15T05:26:03.336Z,7.151489
2023-04-15T05:27:13.032Z,7.171631
2023-04-15T05:28:22.788Z,7.141418
2023-04-15T05:29:30.486Z,7.201843
2023-04-15T05:30:40.179Z,7.232056
2023-04-15T05:31:49.851Z,7.29248
2023-04-15T05:32:57.566Z,7.312622
2023-04-15T05:34:07.238Z,7.28241
2023-04-15T05:35:15.948Z,7.29248
2023-04-15T05:36:24.674Z,7.352905
2023-04-15T05:37:34.367Z,7.362976
2023-04-15T05:38:43.150Z,7.403259
2023-04-15T05:39:52.825Z,7.362976
2023-04-15T05:41:01.554Z,7.453613
2023-04-15T05:42:09.217Z,7.403259
2023-04-15T05:43:18.964Z,7.332764
2023-04-15T05:44:27.665Z,7.322693
2023-04-15T05:45:37.321Z,7.352905
2023-04-15T05:46:47.036Z,7.383118
2023-04-15T05:47:55.869Z,7.362976
2023-04-15T05:49:05.549Z,7.433472
2023-04-15T05:50:14.360Z,7.483826
2023-04-15T05:51:23.027Z,7.453613
2023-04-15T05:52:32.715Z,7.423401
2023-04-15T05:53:40.507Z,7.473755
2023-04-15T05:54:49.260Z,7.433472
2023-04-15T05:55:59.981Z,7.403259
2023-04-15T05:57:08.688Z,7.453613
2023-04-15T05:58:18.392Z,7.453613
2023-04-15T05:59:28.071Z,7.483826
2023-04-15T06:00:36.874Z,7.564392
2023-04-15T06:01:46.616Z,7.53418
2023-04-15T06:02:55.379Z,7.584534
2023-04-15T06:04:05.133Z,7.685242
2023-04-15T06:05:14.784Z,7.685242
2023-04-15T06:06:23.514Z,7.6651
2023-04-15T06:07:33.267Z,7.6651
2023-04-15T06:08:41.962Z,7.745667
2023-04-15T06:09:50.678Z,7.725525
2023-04-15T06:11:00.575Z,7.78595
2023-04-15T06:12:09.274Z,7.896729
2023-04-15T06:13:18.059Z,7.846375
2023-04-15T06:14:27.783Z,7.816162
2023-04-15T06:15:36.502Z,7.846375
2023-04-15T06:16:46.207Z,7.906799
2023-04-15T06:17:54.918Z,8.007507
2023-04-15T06:19:03.696Z,7.997437
2023-04-15T06:20:13.426Z,8.007507
2023-04-15T06:21:21.178Z,8.047791
2023-04-15T06:22:30.906Z,8.057861
2023-04-15T06:23:39.699Z,8.088074
2023-04-15T06:24:48.403Z,8.047791
2023-04-15T06:25:58.145Z,7.937012
2023-04-15T06:27:06.869Z,7.977295
2023-04-15T06:28:14.643Z,8.118286
2023-04-15T06:29:24.361Z,8.078003
2023-04-15T06:30:33.015Z,8.078003
2023-04-15T06:31:41.749Z,8.148499
2023-04-15T06:32:51.497Z,8.118286
2023-04-15T06:34:00.158Z,8.088074
2023-04-15T06:35:09.876Z,8.057861
2023-04-15T06:36:18.586Z,8.178711
2023-04-15T06:37:27.292Z,8.269348
2023-04-15T06:38:36.993Z,8.370056
2023-04-15T06:39:44.689Z,8.329773
2023-04-15T06:40:53.371Z,8.42041
2023-04-15T06:42:03.065Z,8.380127
2023-04-15T06:43:11.772Z,8.359985
2023-04-15T06:44:21.471Z,8.380127
2023-04-15T06:45:30.196Z,8.42041
2023-04-15T06:46:38.838Z,8.450623
2023-04-15T06:47:48.588Z,8.440552
2023-04-15T06:48:57.278Z,8.521118
2023-04-15T06:50:05.996Z,8.511047
2023-04-15T06:51:15.720Z,8.551331
2023-04-15T06:52:23.386Z,8.611755
2023-04-15T06:53:33.114Z,8.641968
2023-04-15T06:54:41.837Z,8.551331
2023-04-15T06:55:51.585Z,8.561401
2023-04-15T06:57:01.315Z,8.581543
2023-04-15T06:58:10.978Z,8.67218
2023-04-15T06:59:20.683Z,8.67218
2023-04-15T07:00:30.371Z,8.823242
2023-04-15T07:01:40.080Z,8.843384
2023-04-15T07:02:48.755Z,8.843384
2023-04-15T07:03:58.483Z,8.79303
2023-04-15T07:05:06.146Z,8.813171
2023-04-15T07:06:14.836Z,8.813171
2023-04-15T07:07:24.516Z,8.813171
2023-04-15T07:08:34.260Z,8.813171
2023-04-15T07:09:43.953Z,8.762817
2023-04-15T07:10:52.632Z,8.873596
2023-04-15T07:12:01.319Z,9.034729
2023-04-15T07:13:11.071Z,9.17572
2023-04-15T07:14:18.797Z,9.226074
2023-04-15T07:15:27.541Z,9.42749
2023-04-15T07:16:37.255Z,9.367065
2023-04-15T07:17:46.994Z,9.306641
2023-04-15T07:18:56.683Z,9.316711
2023-04-15T07:20:06.386Z,9.397278
2023-04-15T07:21:15.148Z,9.407349
2023-04-15T07:22:23.898Z,9.467773
2023-04-15T07:23:31.628Z,9.618835
2023-04-15T07:24:40.368Z,9.578552
2023-04-15T07:25:50.075Z,9.638977
2023-04-15T07:26:58.626Z,9.649048
2023-04-15T07:28:07.455Z,9.588623
2023-04-15T07:29:16.165Z,9.739685
2023-04-15T07:30:24.852Z,9.790039
2023-04-15T07:31:34.589Z,9.769897
2023-04-15T07:32:43.302Z,9.719543
2023-04-15T07:33:52.944Z,9.759827
2023-04-15T07:35:02.662Z,9.729614
2023-04-15T07:36:11.328Z,9.659119
2023-04-15T07:37:21.020Z,9.719543
2023-04-15T07:38:29.691Z,9.870605
2023-04-15T07:39:37.423Z,10.021667
2023-04-15T07:40:47.180Z,10.041809
2023-04-15T07:41:54.854Z,9.870605
2023-04-15T07:43:03.559Z,9.870605
2023-04-15T07:44:13.270Z,9.80011
2023-04-15T07:45:21.974Z,9.739685
2023-04-15T07:46:31.742Z,9.830322
2023-04-15T07:47:40.514Z,9.951172
2023-04-15T07:48:49.124Z,10.102234
2023-04-15T07:49:58.859Z,10.072021
2023-04-15T07:51:07.518Z,9.991455
2023-04-15T07:52:16.178Z,10.102234
2023-04-15T07:53:25.884Z,9.951172
2023-04-15T07:54:33.628Z,9.991455
2023-04-15T07:55:43.308Z,10.072021
2023-04-15T07:56:50.989Z,10.152588
2023-04-15T07:57:59.723Z,10.233154
2023-04-15T07:59:09.409Z,10.444641
2023-04-15T08:00:18.206Z,10.666199
2023-04-15T08:01:26.897Z,10.837402
2023-04-15T08:02:38.099Z,10.80719
2023-04-15T08:03:45.480Z,10.817261
2023-04-15T08:04:55.026Z,10.897827
2023-04-15T08:06:03.744Z,10.988464
2023-04-15T08:07:11.406Z,11.17981
2023-04-15T08:08:21.119Z,11.220093
2023-04-15T08:09:30.852Z,11.18988
2023-04-15T08:10:40.558Z,11.300659
2023-04-15T08:11:51.252Z,11.260376
2023-04-15T08:12:58.922Z,11.119385
2023-04-15T08:14:08.643Z,11.119385
2023-04-15T08:15:17.366Z,11.149597
2023-04-15T08:16:25.118Z,11.169739
2023-04-15T08:17:34.792Z,11.139526
2023-04-15T08:18:42.562Z,11.371155
2023-04-15T08:19:51.271Z,11.481934
2023-04-15T08:21:00.982Z,11.733704
2023-04-15T08:22:10.421Z,11.804199
2023-04-15T08:23:18.574Z,12.015686
2023-04-15T08:24:28.426Z,12.126465
2023-04-15T08:25:39.226Z,12.207031
2023-04-15T08:26:48.921Z,12.247314
2023-04-15T08:27:56.738Z,12.086182
2023-04-15T08:29:05.455Z,12.025757
2023-04-15T08:30:15.249Z,12.015686
2023-04-15T08:31:22.968Z,11.874695
2023-04-15T08:32:32.696Z,11.81427
2023-04-15T08:33:41.394Z,11.93512
2023-04-15T08:34:50.067Z,11.804199
2023-04-15T08:36:00.759Z,11.81427
2023-04-15T08:37:08.878Z,11.753845
2023-04-15T08:38:18.236Z,11.773987
2023-04-15T08:39:28.887Z,11.753845
2023-04-15T08:40:38.612Z,11.723633
2023-04-15T08:41:48.349Z,11.884766
2023-04-15T08:42:57.012Z,11.784058
2023-04-15T08:44:04.713Z,11.985474
2023-04-15T08:45:14.450Z,11.884766
2023-04-15T08:46:24.245Z,11.784058
2023-04-15T08:47:32.804Z,11.68335
2023-04-15T08:48:42.475Z,11.632996
2023-04-15T08:49:51.192Z,11.632996
2023-04-15T08:51:00.881Z,11.622925
2023-04-15T08:52:10.594Z,11.68335
2023-04-15T08:53:18.301Z,11.69342
2023-04-15T08:54:28.083Z,11.502075
2023-04-15T08:55:36.725Z,11.371155
2023-04-15T08:56:45.451Z,11.401367
2023-04-15T08:57:55.209Z,11.371155
2023-04-15T08:59:03.952Z,11.451721
2023-04-15T09:00:12.620Z,11.622925
2023-04-15T09:01:23.373Z,11.733704
2023-04-15T09:02:32.120Z,11.733704
2023-04-15T09:03:41.956Z,11.653137
2023-04-15T09:04:50.633Z,11.753845
2023-04-15T09:05:58.382Z,11.874695
2023-04-15T09:07:08.046Z,11.834412
2023-04-15T09:08:17.838Z,11.733704
2023-04-15T09:09:27.479Z,11.723633
2023-04-15T09:10:37.234Z,11.81427
2023-04-15T09:11:45.901Z,12.055969
2023-04-15T09:12:54.565Z,12.31781
2023-04-15T09:14:04.257Z,12.277527
2023-04-15T09:15:12.984Z,12.146606
2023-04-15T09:16:22.715Z,12.176819
2023-04-15T09:17:30.382Z,12.025757
2023-04-15T09:18:39.110Z,11.93512
2023-04-15T09:19:48.806Z,11.995544
2023-04-15T09:20:57.557Z,11.81427
2023-04-15T09:22:07.234Z,11.864624
2023-04-15T09:23:16.921Z,12.025757
2023-04-15T09:24:25.638Z,12.19696
2023-04-15T09:25:35.396Z,12.207031
2023-04-15T09:26:44.161Z,12.307739
2023-04-15T09:27:52.868Z,12.287598
2023-04-15T09:29:02.639Z,12.287598
2023-04-15T09:30:10.405Z,12.207031
2023-04-15T09:31:20.192Z,12.247314
2023-04-15T09:32:30.118Z,12.217102
2023-04-15T09:33:38.808Z,12.176819
2023-04-15T09:34:48.658Z,12.116394
2023-04-15T09:35:57.433Z,12.166748
2023-04-15T09:37:05.176Z,12.307739
2023-04-15T09:38:15.911Z,12.418518
2023-04-15T09:39:23.637Z,12.277527
2023-04-15T09:40:32.355Z,12.19696
2023-04-15T09:41:42.066Z,12.19696
2023-04-15T09:42:50.359Z,12.267456
2023-04-15T09:44:00.729Z,12.428589
2023-04-15T09:45:10.176Z,12.428589
2023-04-15T09:46:19.038Z,12.489014
2023-04-15T09:47:28.751Z,12.287598
2023-04-15T09:48:36.397Z,12.307739
2023-04-15T09:49:45.150Z,12.307739
2023-04-15T09:50:54.915Z,12.31781
2023-04-15T09:52:05.963Z,12.348022
2023-04-15T09:53:13.314Z,12.428589
2023-04-15T09:54:21.990Z,12.428589
2023-04-15T09:55:29.684Z,12.358093
2023-04-15T09:56:39.432Z,12.44873
2023-04-15T09:57:48.151Z,12.428589
2023-04-15T09:58:57.862Z,12.207031
2023-04-15T10:00:07.629Z,12.015686
2023-04-15T10:01:17.538Z,11.904907
2023-04-15T10:02:27.640Z,11.94519
2023-04-15T10:03:36.444Z,11.985474
2023-04-15T10:04:44.067Z,11.864624
2023-04-15T10:05:53.789Z,11.804199
2023-04-15T10:07:02.469Z,11.663208
2023-04-15T10:08:12.264Z,11.663208
2023-04-15T10:09:21.972Z,11.69342
2023-04-15T10:10:30.679Z,11.622925
2023-04-15T10:11:39.392Z,11.703491
2023-04-15T10:12:49.090Z,11.723633
2023-04-15T10:13:56.777Z,11.733704
2023-04-15T10:15:06.511Z,11.733704
2023-04-15T10:16:16.431Z,11.69342
2023-04-15T10:17:24.121Z,11.844482
2023-04-15T10:18:33.841Z,11.834412
2023-04-15T10:19:42.525Z,11.804199
2023-04-15T10:20:52.329Z,11.663208
2023-04-15T10:22:02.162Z,11.653137
2023-04-15T10:23:12.204Z,11.592712
2023-04-15T10:24:20.641Z,11.602783
2023-04-15T10:25:30.316Z,11.653137
2023-04-15T10:26:38.010Z,11.753845
2023-04-15T10:27:46.806Z,11.965332
2023-04-15T10:28:54.489Z,11.914978
2023-04-15T10:30:04.185Z,11.965332
2023-04-15T10:31:13.986Z,11.995544
2023-04-15T10:32:21.677Z,12.06604
2023-04-15T10:33:31.353Z,12.035828
2023-04-15T10:34:40.205Z,12.015686
2023-04-15T10:35:48.907Z,12.146606
2023-04-15T10:36:58.734Z,11.914978
2023-04-15T10:38:07.569Z,11.965332
2023-04-15T10:39:16.364Z,11.784058
2023-04-15T10:40:26.098Z,11.733704
2023-04-15T10:41:34.854Z,11.844482
2023-04-15T10:42:44.568Z,11.784058
2023-04-15T10:43:53.315Z,11.784058
2023-04-15T10:45:02.199Z,11.844482
2023-04-15T10:46:11.917Z,12.166748
2023-04-15T10:47:19.721Z,12.418518
2023-04-15T10:48:28.360Z,12.499084
2023-04-15T10:49:38.154Z,12.599792
2023-04-15T10:50:46.894Z,12.801208
2023-04-15T10:51:56.626Z,12.851562
2023-04-15T10:53:05.408Z,12.720642
2023-04-15T10:54:14.143Z,12.680359
2023-04-15T10:55:23.881Z,12.680359
2023-04-15T10:56:33.698Z,12.650146
2023-04-15T10:57:42.422Z,12.549438
2023-04-15T10:58:52.103Z,12.579651
2023-04-15T11:00:02.267Z,12.579651
2023-04-15T11:01:09.998Z,12.640076
2023-04-15T11:02:19.052Z,12.579651
2023-04-15T11:03:28.549Z,12.619934
2023-04-15T11:04:37.435Z,12.670288
2023-04-15T11:05:46.999Z,12.549438
2023-04-15T11:06:56.846Z,12.549438
2023-04-15T11:08:06.840Z,12.56958
2023-04-15T11:09:16.723Z,12.44873
2023-04-15T11:10:25.516Z,12.398376
2023-04-15T11:11:35.311Z,12.267456
2023-04-15T11:12:43.222Z,12.31781
2023-04-15T11:13:51.027Z,12.418518
2023-04-15T11:15:00.855Z,12.418518
2023-04-15T11:16:09.662Z,12.388306
2023-04-15T11:17:19.347Z,12.539368
2023-04-15T11:18:28.048Z,12.619934
2023-04-15T11:19:37.801Z,12.56958
2023-04-15T11:20:47.469Z,12.499084
2023-04-15T11:21:56.222Z,12.358093
2023-04-15T11:23:11.970Z,12.247314
2023-04-15T11:24:15.930Z,12.307739
2023-04-15T11:25:24.775Z,12.237244
2023-04-15T11:26:34.541Z,12.307739
2023-04-15T11:27:43.330Z,12.31781
2023-04-15T11:28:51.110Z,12.358093
2023-04-15T11:30:00.862Z,12.358093
2023-04-15T11:31:10.654Z,12.44873
2023-04-15T11:32:19.537Z,12.56958
2023-04-15T11:33:29.162Z,12.489014
2023-04-15T11:34:37.956Z,12.368164
2023-04-15T11:35:47.741Z,12.348022
2023-04-15T11:36:57.553Z,12.267456
2023-04-15T11:38:05.346Z,12.176819
2023-04-15T11:39:15.060Z,12.116394
2023-04-15T11:40:23.808Z,12.217102
2023-04-15T11:41:33.620Z,11.995544
2023-04-15T11:42:49.371Z,11.723633
2023-04-15T11:43:53.180Z,11.753845
2023-04-15T11:45:02.877Z,11.81427
2023-04-15T11:46:11.667Z,11.844482
2023-04-15T11:47:19.417Z,11.572571
2023-04-15T11:48:29.150Z,11.401367
2023-04-15T11:49:37.889Z,11.250305
2023-04-15T11:50:46.624Z,11.169739
2023-04-15T11:51:56.446Z,11.290588
2023-04-15T11:53:07.766Z,11.330872
2023-04-15T11:54:16.022Z,11.371155
2023-04-15T11:55:24.808Z,11.330872
2023-04-15T11:56:33.610Z,11.401367
2023-04-15T11:57:43.545Z,11.411438
2023-04-15T11:58:52.362Z,11.411438
2023-04-15T12:00:01.174Z,11.481934
2023-04-15T12:01:11.014Z,11.522217
2023-04-15T12:02:19.334Z,11.653137
2023-04-15T12:03:29.225Z,11.622925
2023-04-15T12:04:38.989Z,11.622925
2023-04-15T12:05:46.667Z,11.522217
2023-04-15T12:06:57.515Z,11.43158
2023-04-15T12:08:07.444Z,11.552429
2023-04-15T12:09:16.332Z,11.653137
2023-04-15T12:10:26.367Z,11.653137
2023-04-15T12:11:34.233Z,11.43158
2023-04-15T12:12:44.134Z,11.290588
2023-04-15T12:13:52.922Z,11.43158
2023-04-15T12:15:01.691Z,11.512146
2023-04-15T12:16:11.509Z,11.632996
2023-04-15T12:17:19.294Z,11.773987
2023-04-15T12:18:28.038Z,11.834412
2023-04-15T12:19:37.931Z,11.874695
2023-04-15T12:20:46.722Z,11.804199
2023-04-15T12:21:57.828Z,11.784058
2023-04-15T12:23:06.297Z,11.844482
2023-04-15T12:24:15.135Z,11.884766
2023-04-15T12:25:24.898Z,11.995544
2023-04-15T12:26:33.592Z,12.025757
2023-04-15T12:27:42.361Z,11.93512
2023-04-15T12:28:52.073Z,12.015686
2023-04-15T12:29:59.786Z,11.965332
2023-04-15T12:31:09.501Z,11.985474
2023-04-15T12:32:18.269Z,12.055969
2023-04-15T12:33:26.030Z,12.06604
2023-04-15T12:34:35.768Z,11.914978
2023-04-15T12:35:43.515Z,11.94519
2023-04-15T12:36:53.580Z,12.025757
2023-04-15T12:38:03.397Z,12.035828
2023-04-15T12:39:12.182Z,12.146606
2023-04-15T12:40:22.097Z,12.217102
2023-04-15T12:41:31.865Z,12.267456
2023-04-15T12:42:40.679Z,12.055969
2023-04-15T12:43:50.417Z,11.914978
2023-04-15T12:44:59.242Z,11.94519
2023-04-15T12:46:09.065Z,11.985474
2023-04-15T12:47:18.852Z,12.025757
2023-04-15T12:48:26.711Z,11.864624
2023-04-15T12:49:36.519Z,11.844482
2023-04-15T12:50:45.331Z,11.94519
2023-04-15T12:51:53.103Z,12.086182
2023-04-15T12:53:02.974Z,11.995544
2023-04-15T12:54:11.828Z,12.055969
2023-04-15T12:55:19.676Z,12.025757
2023-04-15T12:56:29.458Z,12.025757
2023-04-15T12:57:39.353Z,11.965332
2023-04-15T12:58:49.190Z,11.93512
2023-04-15T12:59:58.920Z,11.904907
2023-04-15T13:01:07.773Z,11.874695
2023-04-15T13:02:16.735Z,11.904907
2023-04-15T13:03:26.550Z,11.834412
2023-04-15T13:04:34.281Z,11.773987
2023-04-15T13:05:43.951Z,11.68335
2023-04-15T13:06:52.680Z,11.753845
2023-04-15T13:08:01.491Z,11.663208
2023-04-15T13:09:11.312Z,11.68335
2023-04-15T13:10:19.012Z,11.733704
2023-04-15T13:11:28.754Z,11.69342
2023-04-15T13:12:38.753Z,11.451721
2023-04-15T13:13:47.485Z,11.471863
2023-04-15T13:14:57.593Z,11.411438
2023-04-15T13:16:08.448Z,11.300659
2023-04-15T13:17:17.187Z,11.300659
2023-04-15T13:18:26.891Z,11.330872
2023-04-15T13:19:35.699Z,11.300659
2023-04-15T13:20:44.412Z,11.260376
2023-04-15T13:21:54.150Z,11.250305
2023-04-15T13:23:02.857Z,11.320801
2023-04-15T13:24:12.554Z,11.290588